createdAt,value
2022-08-03T00:02:19.751Z,54.33
2022-08-03T00:04:47.926Z,55.28
2022-08-03T00:07:16.007Z,55.44
2022-08-03T00:09:44.014Z,55.41
2022-08-03T00:12:12.066Z,57.16
2022-08-03T00:14:40.114Z,58.79
2022-08-03T00:17:09.133Z,58.15
2022-08-03T00:19:36.895Z,59.58
2022-08-03T00:22:04.845Z,57.63
2022-08-03T00:24:32.907Z,56.91
2022-08-03T00:27:00.516Z,56.75
2022-08-03T00:29:28.303Z,55.82
2022-08-03T00:32:00.224Z,55.22
2022-08-03T00:34:35.256Z,54.61
2022-08-03T00:37:16.525Z,55.53
2022-08-03T00:39:47.287Z,57.42
2022-08-03T00:42:16.058Z,61.34
2022-08-03T00:44:44.749Z,61.80
2022-08-03T00:47:13.240Z,63.00
2022-08-03T00:49:41.939Z,63.45
2022-08-03T00:52:10.696Z,64.60
2022-08-03T00:54:38.654Z,65.19
2022-08-03T00:57:07.570Z,65.25
2022-08-03T00:59:35.269Z,65.06
2022-08-03T01:02:03.369Z,64.75
2022-08-03T01:04:31.562Z,65.92
2022-08-03T01:07:10.799Z,65.68
2022-08-03T01:10:00.521Z,65.55
2022-08-03T01:12:58.215Z,67.02
2022-08-03T01:15:36.263Z,67.49
2022-08-03T01:18:15.232Z,68.41
2022-08-03T01:20:47.803Z,68.43
2022-08-03T01:24:03.331Z,68.18
2022-08-03T01:26:43.526Z,68.87
2022-08-03T01:29:30.283Z,68.51
2022-08-03T01:32:53.365Z,69.79
2022-08-03T01:35:01.676Z,68.21
2022-08-03T01:37:38.652Z,67.50
2022-08-03T01:40:09.741Z,67.71
2022-08-03T01:42:39.052Z,65.59
2022-08-03T01:45:11.015Z,63.96
2022-08-03T01:47:40.862Z,65.00
2022-08-03T01:50:10.864Z,65.68
2022-08-03T01:52:42.451Z,67.24
2022-08-03T01:55:13.563Z,67.95
2022-08-03T01:58:05.247Z,67.61
2022-08-03T02:00:33.428Z,68.03
2022-08-03T02:03:04.516Z,67.65
2022-08-03T02:05:33.263Z,66.96
2022-08-03T02:08:03.599Z,66.46
2022-08-03T02:10:34.535Z,66.85
2022-08-03T02:13:08.514Z,66.76
2022-08-03T02:15:38.883Z,66.12
2022-08-03T02:18:10.761Z,67.24
2022-08-03T02:20:40.601Z,68.53
2022-08-03T02:23:09.047Z,69.41
2022-08-03T02:25:44.469Z,68.14
2022-08-03T02:28:17.602Z,66.66
2022-08-03T02:30:53.875Z,65.55
2022-08-03T02:33:32.177Z,65.46
2022-08-03T02:36:01.302Z,63.13
2022-08-03T02:38:36.619Z,63.10
2022-08-03T02:41:09.148Z,61.33
2022-08-03T02:44:05.690Z,61.39
2022-08-03T02:46:44.717Z,62.62
2022-08-03T02:49:40.790Z,63.01
2022-08-03T02:52:05.613Z,62.76
2022-08-03T02:54:41.491Z,62.88
2022-08-03T02:57:11.383Z,63.63
2022-08-03T02:59:40.467Z,63.49
2022-08-03T03:02:09.396Z,62.79
2022-08-03T03:04:37.615Z,62.37
2022-08-03T03:07:16.600Z,62.43
2022-08-03T03:09:44.879Z,64.66
2022-08-03T03:12:13.847Z,66.02
2022-08-03T03:14:42.073Z,66.03
2022-08-03T03:17:11.805Z,65.72
2022-08-03T03:19:40.906Z,66.47
2022-08-03T03:22:10.626Z,65.92
2022-08-03T03:24:41.125Z,68.00
2022-08-03T03:27:09.240Z,69.20
2022-08-03T03:29:39.369Z,69.76
2022-08-03T03:32:09.168Z,71.77
2022-08-03T03:34:37.735Z,72.97
2022-08-03T03:37:06.185Z,74.58
2022-08-03T03:39:33.869Z,74.21
2022-08-03T03:42:02.217Z,73.26
2022-08-03T03:44:30.320Z,72.91
2022-08-03T03:46:58.477Z,70.72
2022-08-03T03:49:26.986Z,69.79
2022-08-03T03:51:56.142Z,69.25
2022-08-03T03:54:25.610Z,69.38
2022-08-03T03:56:57.968Z,69.24
2022-08-03T03:59:25.544Z,70.42
2022-08-03T04:01:58.769Z,70.87
2022-08-03T04:04:45.832Z,71.16
2022-08-03T04:07:31.941Z,71.78
2022-08-03T04:10:19.302Z,72.25
2022-08-03T04:12:49.999Z,71.14
2022-08-03T04:15:23.299Z,71.05
2022-08-03T04:17:54.129Z,70.59
2022-08-03T04:20:24.353Z,69.91
2022-08-03T04:22:54.990Z,69.74
2022-08-03T04:25:26.455Z,69.24
2022-08-03T04:28:08.142Z,68.54
2022-08-03T04:30:50.768Z,68.21
2022-08-03T04:33:20.326Z,67.62
2022-08-03T04:36:02.048Z,67.07
2022-08-03T04:38:40.702Z,67.61
2022-08-03T04:41:09.398Z,67.90
2022-08-03T04:43:43.343Z,66.36
2022-08-03T04:46:12.645Z,65.55
2022-08-03T04:48:44.344Z,65.20
2022-08-03T04:51:13.502Z,65.47
2022-08-03T04:53:44.010Z,66.15
2022-08-03T04:56:11.775Z,65.38
2022-08-03T04:58:39.499Z,65.46
2022-08-03T05:01:07.619Z,65.59
2022-08-03T05:03:35.307Z,63.91
2022-08-03T05:06:11.288Z,61.82
2022-08-03T05:08:45.996Z,59.63
2022-08-03T05:11:16.079Z,58.41
2022-08-03T05:13:45.696Z,57.65
2022-08-03T05:16:14.506Z,56.72
2022-08-03T05:18:43.151Z,59.34
2022-08-03T05:21:12.484Z,60.16
2022-08-03T05:23:40.490Z,59.05
2022-08-03T05:26:08.096Z,57.10
2022-08-03T05:28:35.773Z,56.14
2022-08-03T05:31:03.463Z,55.51
2022-08-03T05:33:31.758Z,56.89
2022-08-03T05:36:03.309Z,56.55
2022-08-03T05:38:34.569Z,55.22
2022-08-03T05:41:22.230Z,54.64
2022-08-03T05:43:53.972Z,52.51
2022-08-03T05:46:23.012Z,51.97
2022-08-03T05:48:51.568Z,52.07
2022-08-03T05:51:19.540Z,50.64
2022-08-03T05:53:47.071Z,49.52
2022-08-03T05:56:16.553Z,49.20
2022-08-03T05:58:46.461Z,48.51
2022-08-03T06:01:15.479Z,47.46
2022-08-03T06:03:43.791Z,47.29
2022-08-03T06:06:12.150Z,46.54
2022-08-03T06:08:43.355Z,46.29
2022-08-03T06:11:11.728Z,45.71
2022-08-03T06:13:39.914Z,45.63
2022-08-03T06:16:07.905Z,45.42
2022-08-03T06:18:36.044Z,45.32
2022-08-03T06:21:14.352Z,43.95
2022-08-03T06:23:53.128Z,44.03
2022-08-03T06:26:25.021Z,43.31
2022-08-03T06:28:54.163Z,43.06
2022-08-03T06:31:26.001Z,43.07
2022-08-03T06:34:33.153Z,43.34
2022-08-03T06:36:57.430Z,43.36
2022-08-03T06:39:29.428Z,43.28
2022-08-03T06:41:57.092Z,42.67
2022-08-03T06:44:24.916Z,42.86
2022-08-03T06:46:53.026Z,42.88
2022-08-03T06:49:21.299Z,43.35
2022-08-03T06:52:04.356Z,42.71
2022-08-03T06:54:34.121Z,42.72
2022-08-03T06:57:01.999Z,41.94
2022-08-03T07:00:11.052Z,41.73
2022-08-03T07:02:21.007Z,41.30
2022-08-03T07:04:50.092Z,40.94
2022-08-03T07:07:19.315Z,41.53
2022-08-03T07:09:57.388Z,42.86
2022-08-03T07:12:28.057Z,41.78
2022-08-03T07:15:00.711Z,41.71
2022-08-03T07:17:32.683Z,41.00
2022-08-03T07:20:01.940Z,40.33
2022-08-03T07:22:30.406Z,40.40
2022-08-03T07:24:59.097Z,40.36
2022-08-03T07:27:28.660Z,40.26
2022-08-03T07:29:58.102Z,40.66
2022-08-03T07:32:26.448Z,39.25
2022-08-03T07:34:59.972Z,39.39
2022-08-03T07:37:29.487Z,39.43
2022-08-03T07:39:58.589Z,39.49
2022-08-03T07:42:27.751Z,38.85
2022-08-03T07:44:55.495Z,39.20
2022-08-03T07:47:25.691Z,39.62
2022-08-03T07:50:05.151Z,38.77
2022-08-03T07:52:52.897Z,39.37
2022-08-03T07:55:23.243Z,38.22
2022-08-03T07:58:01.517Z,37.58
2022-08-03T08:00:30.219Z,38.47
2022-08-03T08:02:58.277Z,38.43
2022-08-03T08:05:27.034Z,38.03
2022-08-03T08:07:55.076Z,38.17
2022-08-03T08:10:22.842Z,38.83
2022-08-03T08:12:51.028Z,38.78
2022-08-03T08:15:18.676Z,39.04
2022-08-03T08:17:49.513Z,39.36
2022-08-03T08:20:31.342Z,39.40
2022-08-03T08:23:02.917Z,38.30
2022-08-03T08:25:32.384Z,37.41
2022-08-03T08:28:29.830Z,37.56
2022-08-03T08:30:52.277Z,37.54
2022-08-03T08:33:23.131Z,37.62
2022-08-03T08:35:53.778Z,37.89
2022-08-03T08:38:22.233Z,38.30
2022-08-03T08:40:50.994Z,37.19
2022-08-03T08:43:18.765Z,36.52
2022-08-03T08:45:49.644Z,36.25
2022-08-03T08:48:23.557Z,37.66
2022-08-03T08:50:57.308Z,37.32
2022-08-03T08:53:30.486Z,36.86
2022-08-03T08:56:01.204Z,36.42
2022-08-03T08:58:35.323Z,36.15
2022-08-03T09:01:04.762Z,35.10
2022-08-03T09:03:34.753Z,35.52
2022-08-03T09:06:03.846Z,35.67
2022-08-03T09:08:33.192Z,35.93
2022-08-03T09:11:01.240Z,34.82
2022-08-03T09:13:30.561Z,35.02
2022-08-03T09:16:24.610Z,34.53
2022-08-03T09:18:54.423Z,34.31
2022-08-03T09:21:32.201Z,34.56
2022-08-03T09:24:04.308Z,33.78
2022-08-03T09:26:38.230Z,34.31
2022-08-03T09:29:13.853Z,34.81
2022-08-03T09:31:45.487Z,34.10
2022-08-03T09:34:16.198Z,33.78
2022-08-03T09:36:45.006Z,33.09
2022-08-03T09:39:18.264Z,34.05
2022-08-03T09:41:48.775Z,33.34
2022-08-03T09:44:25.860Z,34.13
2022-08-03T09:46:58.310Z,32.91
2022-08-03T09:49:26.082Z,32.98
2022-08-03T09:52:38.429Z,33.81
2022-08-03T09:54:43.163Z,32.79
2022-08-03T09:57:26.345Z,32.24
2022-08-03T10:00:03.011Z,31.91
2022-08-03T10:02:44.629Z,30.66
2022-08-03T10:05:19.786Z,29.30
2022-08-03T10:07:50.025Z,29.05
2022-08-03T10:10:29.117Z,28.97
2022-08-03T10:13:00.486Z,29.57
2022-08-03T10:16:22.023Z,30.47
2022-08-03T10:18:17.293Z,30.43
2022-08-03T10:20:52.239Z,30.75
2022-08-03T10:23:22.866Z,30.63
2022-08-03T10:25:58.268Z,30.12
2022-08-03T10:28:29.306Z,30.19
2022-08-03T10:30:57.338Z,31.56
2022-08-03T10:33:51.568Z,30.24
2022-08-03T10:36:17.799Z,31.20
2022-08-03T10:38:55.292Z,29.61
2022-08-03T10:41:31.050Z,29.01
2022-08-03T10:44:15.773Z,29.98
2022-08-03T10:46:45.406Z,28.56
2022-08-03T10:49:16.697Z,28.58
2022-08-03T10:52:00.368Z,28.33
2022-08-03T10:54:37.134Z,29.00
2022-08-03T10:57:23.719Z,27.72
2022-08-03T10:59:55.914Z,26.61
2022-08-03T11:02:23.435Z,26.42
2022-08-03T11:05:29.846Z,26.47
2022-08-03T11:08:23.197Z,25.68
2022-08-03T11:10:54.642Z,26.86
2022-08-03T11:13:25.329Z,27.82
2022-08-03T11:16:01.678Z,27.96
2022-08-03T11:18:32.017Z,28.18
2022-08-03T11:21:01.628Z,28.42
2022-08-03T11:24:03.994Z,28.66
2022-08-03T11:26:34.334Z,28.26
2022-08-03T11:29:28.332Z,28.11
2022-08-03T11:31:57.017Z,27.49
2022-08-03T11:34:26.223Z,26.71
2022-08-03T11:37:23.017Z,26.73
2022-08-03T11:39:53.353Z,26.65
2022-08-03T11:42:24.122Z,27.41
2022-08-03T11:45:00.961Z,27.04
2022-08-03T11:47:30.536Z,26.19
2022-08-03T11:50:02.234Z,26.42
2022-08-03T11:52:38.880Z,25.88
2022-08-03T11:55:11.943Z,25.25
2022-08-03T11:59:19.543Z,24.75
2022-08-03T12:00:32.605Z,25.07
2022-08-03T12:03:07.110Z,25.51
2022-08-03T12:05:35.875Z,23.97
2022-08-03T12:08:06.908Z,23.26
2022-08-03T12:10:35.829Z,22.89
2022-08-03T12:14:27.419Z,22.44
2022-08-03T12:15:59.250Z,21.09
2022-08-03T12:18:27.997Z,21.38
2022-08-03T12:21:11.195Z,20.93
2022-08-03T12:23:39.916Z,22.71
2022-08-03T12:26:10.086Z,22.44
2022-08-03T12:28:38.535Z,22.39
2022-08-03T12:31:09.623Z,22.28
2022-08-03T12:34:05.179Z,22.67
2022-08-03T12:36:36.419Z,21.46
2022-08-03T12:39:12.144Z,22.40
2022-08-03T12:41:41.061Z,22.59
2022-08-03T12:44:10.484Z,21.33
2022-08-03T12:46:45.381Z,21.44
2022-08-03T12:49:20.046Z,20.98
2022-08-03T12:51:48.022Z,20.47
2022-08-03T12:54:24.934Z,21.04
2022-08-03T12:57:16.275Z,20.79
2022-08-03T12:59:53.573Z,19.42
2022-08-03T13:02:27.327Z,17.29
2022-08-03T13:04:56.142Z,17.55
2022-08-03T13:07:23.728Z,16.16
2022-08-03T13:09:57.505Z,16.99
2022-08-03T13:12:27.522Z,17.35
2022-08-03T13:14:57.506Z,18.39
2022-08-03T13:17:26.027Z,16.58
2022-08-03T13:19:53.861Z,16.48
2022-08-03T13:22:23.997Z,16.86
2022-08-03T13:24:53.612Z,17.98
2022-08-03T13:28:02.086Z,17.04
2022-08-03T13:30:10.447Z,16.45
2022-08-03T13:32:38.485Z,16.33
2022-08-03T13:35:07.677Z,16.87
2022-08-03T13:37:35.470Z,16.35
2022-08-03T13:40:05.725Z,16.38
2022-08-03T13:42:35.561Z,15.35
2022-08-03T13:45:04.188Z,16.10
2022-08-03T13:47:32.351Z,16.57
2022-08-03T13:50:02.717Z,15.22
2022-08-03T13:52:33.860Z,15.61
2022-08-03T13:55:04.556Z,14.64
2022-08-03T13:58:06.215Z,15.30
2022-08-03T14:00:27.855Z,16.32
2022-08-03T14:03:09.072Z,14.77
2022-08-03T14:05:41.792Z,14.77
2022-08-03T14:08:10.234Z,13.99
2022-08-03T14:10:40.261Z,14.24
2022-08-03T14:13:09.013Z,15.71
2022-08-03T14:15:38.478Z,15.28
2022-08-03T14:18:13.011Z,14.64
2022-08-03T14:20:47.777Z,14.07
2022-08-03T14:23:18.097Z,14.15
2022-08-03T14:25:51.799Z,13.86
2022-08-03T14:28:24.540Z,13.57
2022-08-03T14:30:52.876Z,12.54
2022-08-03T14:33:20.943Z,12.88
2022-08-03T14:35:49.436Z,14.24
2022-08-03T14:38:18.699Z,14.91
2022-08-03T14:40:47.207Z,14.52
2022-08-03T14:43:18.192Z,14.40
2022-08-03T14:45:46.392Z,13.68
2022-08-03T14:50:26.547Z,14.02
2022-08-03T14:51:02.842Z,13.49
2022-08-03T14:53:30.685Z,14.81
2022-08-03T14:55:58.697Z,13.83
2022-08-03T14:58:26.882Z,13.07
2022-08-03T15:00:56.138Z,13.95
2022-08-03T15:03:25.483Z,13.47
2022-08-03T15:05:55.391Z,14.71
2022-08-03T15:08:25.739Z,13.62
2022-08-03T15:10:54.852Z,14.15
2022-08-03T15:13:22.838Z,12.94
2022-08-03T15:15:51.839Z,12.52
2022-08-03T15:18:20.493Z,12.80
2022-08-03T15:20:50.559Z,13.96
2022-08-03T15:23:19.534Z,14.30
2022-08-03T15:26:03.974Z,14.53
2022-08-03T15:28:37.522Z,14.29
2022-08-03T15:31:06.872Z,14.55
2022-08-03T15:33:35.451Z,13.78
2022-08-03T15:36:04.524Z,13.02
2022-08-03T15:38:32.104Z,14.07
2022-08-03T15:41:00.524Z,13.29
2022-08-03T15:43:28.556Z,14.48
2022-08-03T15:46:27.809Z,14.43
2022-08-03T15:48:43.848Z,13.88
2022-08-03T15:51:12.458Z,14.83
2022-08-03T15:53:40.252Z,14.78
2022-08-03T15:56:13.268Z,14.44
2022-08-03T15:59:04.665Z,14.66
2022-08-03T16:01:33.088Z,14.88
2022-08-03T16:04:01.119Z,13.51
2022-08-03T16:06:35.522Z,14.05
2022-08-03T16:09:22.894Z,13.07
2022-08-03T16:11:55.644Z,13.71
2022-08-03T16:14:32.008Z,14.08
2022-08-03T16:17:04.417Z,14.65
2022-08-03T16:19:32.580Z,13.59
2022-08-03T16:22:02.019Z,14.97
2022-08-03T16:24:31.910Z,14.90
2022-08-03T16:27:00.472Z,14.84
2022-08-03T16:29:28.768Z,13.88
2022-08-03T16:31:56.944Z,14.58
2022-08-03T16:34:24.810Z,14.46
2022-08-03T16:36:53.000Z,14.21
2022-08-03T16:39:20.996Z,14.84
2022-08-03T16:41:54.525Z,14.11
2022-08-03T16:44:31.291Z,14.47
2022-08-03T16:46:59.587Z,15.31
2022-08-03T16:49:53.692Z,15.78
2022-08-03T16:52:16.611Z,16.38
2022-08-03T16:54:50.633Z,17.13
2022-08-03T16:57:55.937Z,17.56
2022-08-03T17:00:12.377Z,17.74
2022-08-03T17:03:04.462Z,17.46
2022-08-03T17:05:47.184Z,17.73
2022-08-03T17:08:16.625Z,18.12
2022-08-03T17:10:55.144Z,17.99
2022-08-03T17:13:27.729Z,17.86
2022-08-03T17:16:12.138Z,18.12
2022-08-03T17:18:56.212Z,17.94
2022-08-03T17:21:30.886Z,18.38
2022-08-03T17:24:12.395Z,18.86
2022-08-03T17:26:49.854Z,20.07
2022-08-03T17:29:19.484Z,21.14
2022-08-03T17:31:52.357Z,23.48
2022-08-03T17:34:26.294Z,24.34
2022-08-03T17:37:04.549Z,25.60
2022-08-03T17:42:30.241Z,27.93
2022-08-03T17:45:02.539Z,27.64
2022-08-03T17:47:42.774Z,27.34
2022-08-03T17:50:24.518Z,28.06
2022-08-03T17:53:07.020Z,29.32
2022-08-03T17:55:58.553Z,29.66
2022-08-03T17:58:55.679Z,30.36
2022-08-03T18:02:00.275Z,29.85
2022-08-03T18:04:40.527Z,30.46
2022-08-03T18:07:12.673Z,30.21
2022-08-03T18:10:05.755Z,30.56
2022-08-03T18:12:51.810Z,30.83
2022-08-03T18:15:32.640Z,31.72
2022-08-03T18:18:10.707Z,32.02
2022-08-03T18:20:41.724Z,32.43
2022-08-03T18:23:25.139Z,32.39
2022-08-03T18:26:04.873Z,32.65
2022-08-03T18:28:34.604Z,33.03
2022-08-03T18:31:04.502Z,33.25
2022-08-03T18:34:17.447Z,33.53
2022-08-03T18:36:30.036Z,33.65
2022-08-03T18:39:03.217Z,33.88
2022-08-03T18:41:35.115Z,33.85
2022-08-03T18:44:08.844Z,34.11
2022-08-03T18:46:47.479Z,34.25
2022-08-03T18:49:22.053Z,34.61
2022-08-03T18:51:58.553Z,35.25
2022-08-03T18:55:02.790Z,35.09
2022-08-03T18:57:50.959Z,35.30
2022-08-03T19:00:24.417Z,35.33
2022-08-03T19:03:10.195Z,35.58
2022-08-03T19:06:05.884Z,35.94
2022-08-03T19:08:56.177Z,36.49
2022-08-03T19:12:13.874Z,36.21
2022-08-03T19:14:35.355Z,36.45
2022-08-03T19:17:13.258Z,37.17
2022-08-03T19:19:48.175Z,37.01
2022-08-03T19:22:22.407Z,37.03
2022-08-03T19:24:53.484Z,37.57
2022-08-03T19:27:26.780Z,37.43
2022-08-03T19:29:58.962Z,38.08
2022-08-03T19:32:30.311Z,38.13
2022-08-03T19:35:00.363Z,37.90
2022-08-03T19:37:38.731Z,38.50
2022-08-03T19:40:10.776Z,38.58
2022-08-03T19:42:45.348Z,39.12
2022-08-03T19:45:21.983Z,38.48
2022-08-03T19:48:12.985Z,38.90
2022-08-03T19:50:44.588Z,38.98
2022-08-03T19:53:13.679Z,38.68
2022-08-03T19:55:48.801Z,38.19
2022-08-03T19:58:28.456Z,37.72
2022-08-03T20:00:56.680Z,39.04
2022-08-03T20:03:43.053Z,40.17
2022-08-03T20:06:12.770Z,41.25
2022-08-03T20:08:48.238Z,41.50
2022-08-03T20:11:20.423Z,41.45
2022-08-03T20:13:57.715Z,41.33
2022-08-03T20:16:26.410Z,41.89
2022-08-03T20:18:53.935Z,41.86
2022-08-03T20:21:31.166Z,42.09
2022-08-03T20:26:54.586Z,42.45
2022-08-03T20:30:06.985Z,41.74
2022-08-03T20:32:25.186Z,41.81
2022-08-03T20:34:53.451Z,41.97
2022-08-03T20:37:21.519Z,42.00
2022-08-03T20:39:49.935Z,41.25
2022-08-03T20:45:14.060Z,41.70
2022-08-03T20:47:55.356Z,41.80
2022-08-03T20:50:23.439Z,41.55
2022-08-03T20:52:53.874Z,41.44
2022-08-03T20:55:47.865Z,41.58
2022-08-03T20:58:11.285Z,41.30
2022-08-03T21:00:43.656Z,41.48
2022-08-03T21:03:11.860Z,41.36
2022-08-03T21:05:48.242Z,41.32
2022-08-03T21:08:22.583Z,41.91
2022-08-03T21:10:52.545Z,41.76
2022-08-03T21:13:07.251Z,41.84
2022-08-03T21:13:13.297Z,42.22
2022-08-03T21:13:24.945Z,41.29
2022-08-03T21:16:12.309Z,41.31
2022-08-03T21:18:48.700Z,41.82
2022-08-03T21:21:20.057Z,41.70
2022-08-03T21:23:53.593Z,41.67
2022-08-03T21:26:24.268Z,41.63
2022-08-03T21:28:56.558Z,41.46
2022-08-03T21:31:26.759Z,41.95
2022-08-03T21:34:00.617Z,41.84
2022-08-03T21:36:31.083Z,41.49
2022-08-03T21:39:00.389Z,41.74
2022-08-03T21:41:31.345Z,42.00
2022-08-03T21:44:01.211Z,41.82
2022-08-03T21:46:35.256Z,41.84
2022-08-03T21:50:05.554Z,41.78
2022-08-03T21:51:58.619Z,41.74
2022-08-03T21:54:35.582Z,41.93
2022-08-03T21:57:08.965Z,42.34
2022-08-03T21:59:40.384Z,42.32
2022-08-03T22:02:11.455Z,42.33
2022-08-03T22:04:57.204Z,42.67
2022-08-03T22:07:27.452Z,42.55
2022-08-03T22:09:56.601Z,43.31
2022-08-03T22:12:26.869Z,43.12
2022-08-03T22:15:00.573Z,43.39
2022-08-03T22:17:55.837Z,43.18
2022-08-03T22:20:25.686Z,43.12
2022-08-03T22:22:57.069Z,43.28
2022-08-03T22:25:32.552Z,43.12
2022-08-03T22:28:07.434Z,43.41
2022-08-03T22:30:35.643Z,43.64
2022-08-03T22:33:11.678Z,43.47
2022-08-03T22:35:47.885Z,43.42
2022-08-03T22:38:18.477Z,44.23
2022-08-03T22:40:52.753Z,44.32
2022-08-03T22:43:27.756Z,43.70
2022-08-03T22:46:08.836Z,43.27
2022-08-03T22:48:40.926Z,43.32
2022-08-03T22:51:10.344Z,44.05
2022-08-03T22:53:39.543Z,44.27
2022-08-03T22:56:09.047Z,44.04
2022-08-03T22:58:37.334Z,43.67
2022-08-03T23:01:08.421Z,44.19
2022-08-03T23:04:00.228Z,43.86
2022-08-03T23:06:40.578Z,44.71
2022-08-03T23:09:11.771Z,44.34
2022-08-03T23:11:45.922Z,44.60
2022-08-03T23:14:16.908Z,44.38
2022-08-03T23:16:47.048Z,44.49
2022-08-03T23:19:17.311Z,44.23
2022-08-03T23:22:02.456Z,44.39
2022-08-03T23:24:36.430Z,45.33
2022-08-03T23:27:05.815Z,45.32
2022-08-03T23:29:38.504Z,45.06
2022-08-03T23:32:07.402Z,45.20
2022-08-03T23:34:57.029Z,45.34
2022-08-03T23:37:25.317Z,45.76
2022-08-03T23:39:55.437Z,45.44
2022-08-03T23:42:23.510Z,45.51
2022-08-03T23:44:55.290Z,45.80
2022-08-03T23:47:23.619Z,45.99
2022-08-03T23:49:51.426Z,46.14
2022-08-03T23:52:29.695Z,46.60
2022-08-03T23:55:23.209Z,46.75
2022-08-03T23:58:18.065Z,47.24
